This is the latest recevied weather packets stored in our database for station/object KA1ROH. If no packets are shown the sender has not sent any weather packets the latest 10 day(s).
| Time | Temp. | Humidity | Pressure | Rain* | Wind** | Luminosity | Snow |
|---|---|---|---|---|---|---|---|
| 1777519074 | 16.67° C | 54% | 1005.4 hPa | 0 mm | - | - | - |
| 1777517841 | 16.67° C | 54% | 1005.1 hPa | 0 mm | - | - | - |
| 1777517240 | 16.67° C | 54% | 1005.1 hPa | 0 mm | - | - | - |
| 1777509940 | 18.33° C | 52% | 1005.8 hPa | 0 mm | - | - | - |
| 1777506906 | 18.89° C | 51% | 1005.4 hPa | 0 mm | - | - | - |
| 1777506274 | 19.44° C | 51% | 1005.4 hPa | 0 mm | - | - | - |
| 1777504471 | 20° C | 48% | 1005.4 hPa | 0 mm | - | - | - |
| 1777500266 | 20.56° C | 51% | 1006.1 hPa | 0 mm | - | - | - |
| 1777495369 | 21.67° C | 45% | 1006.8 hPa | 0 mm | - | - | - |
| 1777489361 | 19.44° C | 54% | 1008.1 hPa | 0 mm | - | - | - |
| 1777483200 | 20° C | 50% | 1009.1 hPa | 0 mm | - | - | - |
| 1777480766 | 18.33° C | 53% | 1010.2 hPa | 0 mm | - | - | - |
| 1777479564 | 18.33° C | 52% | 1010.5 hPa | 0 mm | - | - | - |
| 1777478362 | 17.78° C | 54% | 1010.5 hPa | 0 mm | - | - | - |
| 1777476498 | 18.33° C | 51% | 1010.8 hPa | 0 mm | - | - | - |
| 1777474096 | 17.22° C | 51% | 1011.5 hPa | 0 mm | - | - | - |
| 1777469165 | 15° C | 53% | 1012.5 hPa | 0 mm | - | - | - |
| 1777468564 | 14.44° C | 53% | 1012.9 hPa | 0 mm | - | - | - |
| 1777463697 | 13.33° C | 52% | 1013.5 hPa | 0 mm | - | - | - |
| 1777461232 | 12.22° C | 53% | 1013.5 hPa | 0 mm | - | - | - |
| 1777458198 | 11.11° C | 51% | 1013.2 hPa | 0 mm | - | - | - |
| 1777457597 | 11.11° C | 50% | 1013.2 hPa | 0 mm | - | - | - |
| 1777455133 | 11.11° C | 50% | 1012.9 hPa | 0 mm | - | - | - |
| 1777452098 | 11.11° C | 50% | 1012.9 hPa | 0 mm | - | - | - |
| 1777449664 | 11.11° C | 52% | 1012.9 hPa | 0 mm | - | - | - |
* Rain latest hour (hover to see other rain measurements)
** Current wind speed in m/s (hover to see current wind gust speed)